sensor_id;sensor_type;location;lat;lon;timestamp;P1;durP1;ratioP1;P2;durP2;ratioP2
48034;SDS011;33812;46.480;6.834;2024-01-06T13:40:18;8.95;;;1.70;;
48034;SDS011;33812;46.480;6.834;2024-01-06T13:44:21;6.87;;;0.87;;
48034;SDS011;33812;46.480;6.834;2024-01-06T13:48:23;13.52;;;1.65;;
48034;SDS011;33812;46.480;6.834;2024-01-06T13:52:25;2.88;;;1.30;;
48034;SDS011;33812;46.480;6.834;2024-01-06T13:56:28;9.70;;;1.38;;
48034;SDS011;33812;46.480;6.834;2024-01-06T14:00:29;23.08;;;2.30;;
48034;SDS011;33812;46.480;6.834;2024-01-06T14:04:31;17.60;;;2.25;;
48034;SDS011;33812;46.480;6.834;2024-01-06T14:08:33;16.13;;;2.08;;
48034;SDS011;33812;46.480;6.834;2024-01-06T14:12:36;16.83;;;1.98;;
48034;SDS011;33812;46.480;6.834;2024-01-06T14:16:38;7.38;;;1.48;;
48034;SDS011;33812;46.480;6.834;2024-01-06T14:20:40;28.38;;;3.38;;
48034;SDS011;33812;46.480;6.834;2024-01-06T14:24:41;17.80;;;2.42;;
48034;SDS011;33812;46.480;6.834;2024-01-06T14:28:44;6.85;;;1.73;;
48034;SDS011;33812;46.480;6.834;2024-01-06T14:32:46;11.35;;;3.20;;
48034;SDS011;33812;46.480;6.834;2024-01-06T14:36:48;12.27;;;4.03;;
48034;SDS011;33812;46.480;6.834;2024-01-06T14:40:50;15.70;;;5.32;;
48034;SDS011;33812;46.480;6.834;2024-01-06T14:44:53;18.80;;;6.03;;
48034;SDS011;33812;46.480;6.834;2024-01-06T14:48:54;24.20;;;7.40;;
48034;SDS011;33812;46.480;6.834;2024-01-06T14:52:56;18.00;;;7.53;;
48034;SDS011;33812;46.480;6.834;2024-01-06T14:56:58;22.58;;;7.28;;
48034;SDS011;33812;46.480;6.834;2024-01-06T15:01:01;20.63;;;8.98;;
48034;SDS011;33812;46.480;6.834;2024-01-06T15:05:06;16.75;;;7.40;;
48034;SDS011;33812;46.480;6.834;2024-01-06T15:09:08;17.73;;;7.95;;
48034;SDS011;33812;46.480;6.834;2024-01-06T15:13:10;18.83;;;7.90;;
48034;SDS011;33812;46.480;6.834;2024-01-06T15:17:13;30.45;;;9.05;;
48034;SDS011;33812;46.480;6.834;2024-01-06T15:21:15;30.73;;;8.85;;
48034;SDS011;33812;46.480;6.834;2024-01-06T15:25:21;29.98;;;9.05;;
48034;SDS011;33812;46.480;6.834;2024-01-06T15:29:23;15.30;;;6.65;;
48034;SDS011;33812;46.480;6.834;2024-01-06T15:33:26;33.42;;;12.05;;
48034;SDS011;33812;46.480;6.834;2024-01-06T15:37:28;22.13;;;6.38;;
48034;SDS011;33812;46.480;6.834;2024-01-06T15:41:30;14.18;;;6.18;;
48034;SDS011;33812;46.480;6.834;2024-01-06T15:45:32;21.25;;;5.93;;
48034;SDS011;33812;46.480;6.834;2024-01-06T15:49:35;15.82;;;6.20;;
48034;SDS011;33812;46.480;6.834;2024-01-06T15:53:37;23.92;;;6.78;;
48034;SDS011;33812;46.480;6.834;2024-01-06T15:57:39;22.08;;;6.63;;
48034;SDS011;33812;46.480;6.834;2024-01-06T16:01:41;35.28;;;6.90;;
48034;SDS011;33812;46.480;6.834;2024-01-06T16:05:45;14.52;;;5.30;;
48034;SDS011;33812;46.480;6.834;2024-01-06T16:09:46;19.70;;;5.55;;
48034;SDS011;33812;46.480;6.834;2024-01-06T16:13:48;24.55;;;6.45;;
48034;SDS011;33812;46.480;6.834;2024-01-06T16:17:50;21.00;;;4.75;;
48034;SDS011;33812;46.480;6.834;2024-01-06T16:21:53;23.92;;;7.03;;
48034;SDS011;33812;46.480;6.834;2024-01-06T16:25:55;27.30;;;5.45;;
48034;SDS011;33812;46.480;6.834;2024-01-06T16:29:57;594.05;;;165.48;;
48034;SDS011;33812;46.480;6.834;2024-01-06T16:33:59;960.97;;;333.58;;
48034;SDS011;33812;46.480;6.834;2024-01-06T16:38:02;782.38;;;267.25;;
48034;SDS011;33812;46.480;6.834;2024-01-06T16:42:04;750.38;;;264.05;;
48034;SDS011;33812;46.480;6.834;2024-01-06T16:46:06;671.70;;;222.77;;
48034;SDS011;33812;46.480;6.834;2024-01-06T16:50:09;587.05;;;183.27;;
48034;SDS011;33812;46.480;6.834;2024-01-06T16:54:12;539.80;;;161.65;;
48034;SDS011;33812;46.480;6.834;2024-01-06T16:58:14;492.13;;;142.80;;
48034;SDS011;33812;46.480;6.834;2024-01-06T17:02:16;455.33;;;126.07;;
48034;SDS011;33812;46.480;6.834;2024-01-06T17:06:18;377.77;;;107.13;;
48034;SDS011;33812;46.480;6.834;2024-01-06T17:10:21;306.70;;;95.30;;
48034;SDS011;33812;46.480;6.834;2024-01-06T17:14:23;285.60;;;91.57;;
48034;SDS011;33812;46.480;6.834;2024-01-06T17:18:25;265.27;;;80.15;;
48034;SDS011;33812;46.480;6.834;2024-01-06T17:22:27;230.02;;;71.88;;
48034;SDS011;33812;46.480;6.834;2024-01-06T17:26:30;228.80;;;69.35;;
48034;SDS011;33812;46.480;6.834;2024-01-06T17:30:31;200.15;;;63.83;;
48034;SDS011;33812;46.480;6.834;2024-01-06T17:34:33;175.27;;;59.13;;
48034;SDS011;33812;46.480;6.834;2024-01-06T17:38:35;185.13;;;57.38;;
48034;SDS011;33812;46.480;6.834;2024-01-06T17:42:38;156.40;;;49.95;;
48034;SDS011;33812;46.480;6.834;2024-01-06T17:46:41;148.85;;;45.63;;
48034;SDS011;33812;46.480;6.834;2024-01-06T17:50:43;138.23;;;45.55;;
48034;SDS011;33812;46.480;6.834;2024-01-06T17:54:45;131.75;;;43.85;;
48034;SDS011;33812;46.480;6.834;2024-01-06T17:58:49;128.38;;;42.47;;
48034;SDS011;33812;46.480;6.834;2024-01-06T18:02:51;138.48;;;42.65;;
48034;SDS011;33812;46.480;6.834;2024-01-06T18:06:52;130.57;;;38.38;;
48034;SDS011;33812;46.480;6.834;2024-01-06T18:10:54;122.30;;;36.10;;
48034;SDS011;33812;46.480;6.834;2024-01-06T18:14:57;105.28;;;36.05;;
48034;SDS011;33812;46.480;6.834;2024-01-06T18:18:59;25.75;;;7.07;;
48034;SDS011;33812;46.480;6.834;2024-01-06T18:23:01;18.52;;;3.85;;
48034;SDS011;33812;46.480;6.834;2024-01-06T18:27:03;22.20;;;6.22;;
48034;SDS011;33812;46.480;6.834;2024-01-06T18:31:07;19.27;;;4.78;;
48034;SDS011;33812;46.480;6.834;2024-01-06T18:35:09;20.67;;;4.90;;
48034;SDS011;33812;46.480;6.834;2024-01-06T18:39:10;17.35;;;4.72;;
48034;SDS011;33812;46.480;6.834;2024-01-06T18:43:12;16.63;;;5.15;;
48034;SDS011;33812;46.480;6.834;2024-01-06T18:47:15;14.50;;;4.50;;
48034;SDS011;33812;46.480;6.834;2024-01-06T18:51:17;18.27;;;3.92;;
48034;SDS011;33812;46.480;6.834;2024-01-06T18:55:19;29.92;;;4.85;;
48034;SDS011;33812;46.480;6.834;2024-01-06T18:59:21;12.70;;;3.95;;
48034;SDS011;33812;46.480;6.834;2024-01-06T19:03:24;21.25;;;4.60;;
48034;SDS011;33812;46.480;6.834;2024-01-06T19:07:26;40.88;;;6.22;;
48034;SDS011;33812;46.480;6.834;2024-01-06T19:11:29;16.50;;;3.92;;
48034;SDS011;33812;46.480;6.834;2024-01-06T19:15:30;23.15;;;4.13;;
48034;SDS011;33812;46.480;6.834;2024-01-06T19:19:33;17.17;;;3.72;;
48034;SDS011;33812;46.480;6.834;2024-01-06T19:23:39;21.55;;;4.18;;
48034;SDS011;33812;46.480;6.834;2024-01-06T19:27:41;14.75;;;3.65;;
48034;SDS011;33812;46.480;6.834;2024-01-06T19:31:43;16.15;;;3.70;;
48034;SDS011;33812;46.480;6.834;2024-01-06T19:35:46;28.08;;;3.97;;
48034;SDS011;33812;46.480;6.834;2024-01-06T19:39:48;16.05;;;3.65;;
48034;SDS011;33812;46.480;6.834;2024-01-06T19:43:50;11.82;;;2.75;;
48034;SDS011;33812;46.480;6.834;2024-01-06T19:47:51;12.07;;;3.10;;
48034;SDS011;33812;46.480;6.834;2024-01-06T19:51:54;13.82;;;3.22;;
48034;SDS011;33812;46.480;6.834;2024-01-06T19:55:58;13.57;;;3.38;;
48034;SDS011;33812;46.480;6.834;2024-01-06T20:00:01;16.42;;;4.57;;
48034;SDS011;33812;46.480;6.834;2024-01-06T20:04:04;11.02;;;3.15;;
48034;SDS011;33812;46.480;6.834;2024-01-06T20:08:07;21.70;;;4.22;;
48034;SDS011;33812;46.480;6.834;2024-01-06T20:12:09;16.77;;;3.90;;
48034;SDS011;33812;46.480;6.834;2024-01-06T20:16:11;24.45;;;4.00;;
48034;SDS011;33812;46.480;6.834;2024-01-06T20:20:13;211.20;;;25.73;;
48034;SDS011;33812;46.480;6.834;2024-01-06T20:24:16;22.65;;;3.33;;
48034;SDS011;33812;46.480;6.834;2024-01-06T20:28:18;20.77;;;3.92;;
48034;SDS011;33812;46.480;6.834;2024-01-06T20:32:20;24.33;;;3.50;;
48034;SDS011;33812;46.480;6.834;2024-01-06T20:36:21;33.95;;;4.82;;
48034;SDS011;33812;46.480;6.834;2024-01-06T20:40:25;18.60;;;4.38;;
48034;SDS011;33812;46.480;6.834;2024-01-06T20:44:27;18.83;;;3.03;;
48034;SDS011;33812;46.480;6.834;2024-01-06T20:48:31;15.68;;;3.33;;
48034;SDS011;33812;46.480;6.834;2024-01-06T20:52:35;19.83;;;3.23;;
48034;SDS011;33812;46.480;6.834;2024-01-06T20:56:38;12.48;;;2.75;;
48034;SDS011;33812;46.480;6.834;2024-01-06T21:00:40;10.85;;;2.92;;
48034;SDS011;33812;46.480;6.834;2024-01-06T21:04:41;14.15;;;2.80;;
48034;SDS011;33812;46.480;6.834;2024-01-06T21:08:43;10.50;;;2.70;;
48034;SDS011;33812;46.480;6.834;2024-01-06T21:12:47;20.20;;;3.58;;
48034;SDS011;33812;46.480;6.834;2024-01-06T21:16:49;15.25;;;2.97;;
48034;SDS011;33812;46.480;6.834;2024-01-06T21:20:51;9.55;;;2.17;;
48034;SDS011;33812;46.480;6.834;2024-01-06T21:24:53;11.23;;;2.92;;
48034;SDS011;33812;46.480;6.834;2024-01-06T21:28:56;13.45;;;2.78;;
48034;SDS011;33812;46.480;6.834;2024-01-06T21:32:59;13.15;;;2.88;;
48034;SDS011;33812;46.480;6.834;2024-01-06T21:37:01;12.05;;;2.60;;
48034;SDS011;33812;46.480;6.834;2024-01-06T21:41:03;20.80;;;3.38;;
48034;SDS011;33812;46.480;6.834;2024-01-06T21:45:07;22.38;;;3.13;;
48034;SDS011;33812;46.480;6.834;2024-01-06T21:49:09;15.20;;;2.65;;
48034;SDS011;33812;46.480;6.834;2024-01-06T21:53:10;6.72;;;2.42;;
48034;SDS011;33812;46.480;6.834;2024-01-06T21:57:12;14.32;;;2.47;;
48034;SDS011;33812;46.480;6.834;2024-01-06T22:01:15;15.43;;;2.42;;
48034;SDS011;33812;46.480;6.834;2024-01-06T22:05:17;14.82;;;2.53;;
48034;SDS011;33812;46.480;6.834;2024-01-06T22:09:19;14.30;;;2.95;;
48034;SDS011;33812;46.480;6.834;2024-01-06T22:13:21;15.20;;;2.60;;
48034;SDS011;33812;46.480;6.834;2024-01-06T22:17:25;15.18;;;2.70;;
48034;SDS011;33812;46.480;6.834;2024-01-06T22:21:26;16.27;;;3.08;;
48034;SDS011;33812;46.480;6.834;2024-01-06T22:25:29;19.65;;;2.92;;
48034;SDS011;33812;46.480;6.834;2024-01-06T22:29:31;18.52;;;3.00;;
48034;SDS011;33812;46.480;6.834;2024-01-06T22:33:34;19.40;;;3.20;;
48034;SDS011;33812;46.480;6.834;2024-01-06T22:41:52;18.05;;;2.45;;
48034;SDS011;33812;46.480;6.834;2024-01-06T22:45:54;18.45;;;2.97;;
48034;SDS011;33812;46.480;6.834;2024-01-06T22:49:56;16.60;;;2.95;;
48034;SDS011;33812;46.480;6.834;2024-01-06T22:53:59;17.02;;;2.72;;
48034;SDS011;33812;46.480;6.834;2024-01-06T22:58:03;11.30;;;2.05;;
48034;SDS011;33812;46.480;6.834;2024-01-06T23:02:05;10.98;;;1.85;;
48034;SDS011;33812;46.480;6.834;2024-01-06T23:06:07;10.70;;;2.13;;
48034;SDS011;33812;46.480;6.834;2024-01-06T23:10:09;6.50;;;1.33;;
48034;SDS011;33812;46.480;6.834;2024-01-06T23:14:14;11.73;;;2.00;;
48034;SDS011;33812;46.480;6.834;2024-01-06T23:18:16;9.68;;;1.58;;
48034;SDS011;33812;46.480;6.834;2024-01-06T23:22:17;8.23;;;1.63;;
48034;SDS011;33812;46.480;6.834;2024-01-06T23:26:19;10.95;;;1.80;;
48034;SDS011;33812;46.480;6.834;2024-01-06T23:30:22;13.85;;;2.05;;
48034;SDS011;33812;46.480;6.834;2024-01-06T23:34:24;17.67;;;2.88;;
48034;SDS011;33812;46.480;6.834;2024-01-06T23:38:31;11.27;;;1.90;;
48034;SDS011;33812;46.480;6.834;2024-01-06T23:42:33;14.43;;;2.03;;
48034;SDS011;33812;46.480;6.834;2024-01-06T23:46:37;10.82;;;2.08;;
48034;SDS011;33812;46.480;6.834;2024-01-06T23:50:39;6.65;;;1.38;;
48034;SDS011;33812;46.480;6.834;2024-01-06T23:54:42;14.05;;;1.85;;
48034;SDS011;33812;46.480;6.834;2024-01-06T23:58:44;8.55;;;1.73;;
